• Join FlightAware (Why Join?)
  • Login
  • US Flag 
08:50PM EDT


 

Airport Tracker/Info


-or-


 

Live Flight TrackerFlight Track Log ✈ DAL9933 ✈ 04-Jun-2013 ✈ KATL - KCVG

Flight Track Log - Related Links

Times and Time Zones

All times are in EDT time to prevent confusion due to time zone crossing. See the DAL9933 flight status page for this flight to view local times or setup timezone preferences in your user account.

Time Position Orientation Groundspeed Altitude Reporting Facility
EDT Latitude Longitude Course Direction KTS MPH feet Rate Location/Type
07:15AM 33.6456 -84.3806 North 442 509 2,400  Level Atlanta Center
07:16AM 33.6500 -84.3333 84° East 244 281 3,800 2,940 Climbing Atlanta TRACON
07:17AM 33.6667 -84.2333 79° East 290 334 7,200 3,000 Climbing Atlanta TRACON
07:18AM 33.7333 -84.1833 32° Northeast 307 353 10,100 1,500 Climbing Atlanta TRACON
07:20AM 33.9506 -84.2767 340° North 354 407 12,400 1,380 Climbing Atlanta Center
07:21AM 34.1596 -84.2667 North  Level FlightAware Approximate
07:21AM 34.0403 -84.2794 359° North 354 407 14,900  Level Atlanta Center
07:22AM 34.1697 -84.2797 360° North 389 448 18,200 2,700 Climbing Atlanta Center
07:23AM 34.2886 -84.2803 360° North 415 478 20,400 2,100 Climbing Atlanta Center
07:24AM 34.4078 -84.2528 11° North 426 490 22,400 2,040 Climbing Atlanta Center
07:26AM 34.6500 -84.1953 11° North 451 519 26,600 2,040 Climbing Atlanta Center
07:27AM 34.7833 -84.1653 10° North 446 513 28,600 1,920 Climbing Atlanta Center
07:28AM 34.9108 -84.1350 11° North 451 519 30,500 1,800 Climbing Atlanta Center
07:29AM 35.0319 -84.1047 12° North 451 519 32,300 1,500 Climbing Atlanta Center
07:30AM 35.1569 -84.0769 10° North 451 519 33,500 1,140 Climbing Atlanta Center
07:31AM 35.2803 -84.0464 11° North 451 519 34,600 720 Climbing Atlanta Center
07:32AM 35.4033 -84.0158 11° North 451 519 35,000 180 Climbing Atlanta Center
07:33AM 35.5264 -83.9853 11° North 451 519 35,000  Level Atlanta Center
07:34AM 35.6514 -83.9569 10° North 451 519 35,000  Level Atlanta Center
07:35AM 35.7767 -83.9261 11° North 451 519 35,000  Level Atlanta Center
07:36AM 35.8997 -83.8953 11° North 451 519 35,000  Level Atlanta Center
07:37AM 36.0228 -83.8744 North 446 513 35,000 120 Level Atlanta Center
07:38AM 36.1458 -83.8536 North 446 513 35,300 420 Climbing Atlanta Center
07:39AM 36.1939 -83.8439 North 449 517 35,600 480 Climbing Indianapolis Center
07:40AM 36.3139 -83.8217 North 441 507 36,000 180 Climbing Indianapolis Center
07:41AM 36.4356 -83.8011 North 441 507 36,000  Level Indianapolis Center
07:42AM 36.5689 -83.7797 North 449 517 36,000 -120 Level Indianapolis Center
07:43AM 36.6914 -83.7606 North 443 510 35,800 -600 Descending Indianapolis Center
07:44AM 36.8133 -83.7406 North 439 505 34,800 -1,200 Descending Indianapolis Center
07:45AM 36.9372 -83.7194 North 444 511 33,400 -1,380 Descending Indianapolis Center
07:46AM 37.0589 -83.6978 North 440 506 32,000 -1,440 Descending Indianapolis Center
07:47AM 37.1817 -83.6772 North 439 505 30,500 -1,680 Descending Indianapolis Center
07:48AM 37.3042 -83.6539 North 443 510 28,600 -2,100 Descending Indianapolis Center
07:49AM 37.4497 -83.6286 North 449 517 26,300 -2,160 Descending Indianapolis Center
07:50AM 37.5764 -83.6056 North 453 521 24,200 -1,860 Descending Indianapolis Center
07:51AM 37.6994 -83.6325 350° North 458 527 22,500 -1,080 Descending Indianapolis Center
07:52AM 37.8003 -83.7033 331° Northwest 422 486 22,000 -300 Descending Indianapolis Center
07:53AM 37.8997 -83.7697 332° Northwest 406 467 22,000 -300 Level Indianapolis Center
07:54AM 37.9986 -83.8378 332° Northwest 404 465 21,500 -1,620 Descending Indianapolis Center
07:55AM 38.0942 -83.9064 331° Northwest 395 455 18,800 -2,700 Descending Indianapolis Center
07:56AM 38.2014 -83.9825 331° Northwest 380 437 16,000 -2,580 Descending Indianapolis Center
07:57AM 38.2908 -84.0453 331° Northwest 367 422 13,500 -2,100 Descending Indianapolis Center
07:58AM 38.3758 -84.1069 330° Northwest 352 405 11,700 -1,260 Descending Indianapolis Center
07:59AM 38.4581 -84.1728 328° Northwest 349 402 11,000 -360 Descending Indianapolis Center
08:00AM 38.5411 -84.2347 330° Northwest 346 398 11,000  Level Indianapolis Center
08:01AM 38.6206 -84.3025 326° Northwest 343 395 11,000  Level Indianapolis Center
08:02AM 38.7008 -84.3683 327° Northwest 343 395 11,000 -60 Level Indianapolis Center
08:03AM 38.7819 -84.4353 327° Northwest 344 396 10,900 -360 Descending Indianapolis Center
08:04AM 38.8686 -84.5081 327° Northwest 327 376 10,300 -840 Descending Indianapolis Center
08:05AM 38.9461 -84.5297 348° North 282 325 9,300 -1,260 Descending Indianapolis Center
08:06AM 39.0197 -84.5419 353° North 266 306 7,700 -1,620 Descending Indianapolis Center
08:07AM 39.0964 -84.5536 353° North 272 313 6,000 -1,620 Descending Indianapolis Center
08:08AM 39.1664 -84.5747 347° North 261 300 4,400 -1,260 Descending Indianapolis Center
08:10AM 39.1644 -84.6458 268° West 240 276 3,500 -1,320 Descending Indianapolis Center
08:11AM 39.1000 -84.6667 194° South 170 196 1,700 -1,800 Descending Cincinnati TRACON
08:14AM 39.0488 -84.6678 180° South  Level Estimated